sensor_id;sensor_type;location;lat;lon;timestamp;pressure;altitude;pressure_sealevel;temperature;humidity
65557;BME280;52200;53.490;14.376;2023-01-29T00:01:04;102403.81;;;0.19;80.61
65557;BME280;52200;53.490;14.376;2023-01-29T00:03:29;102406.09;;;0.14;80.45
65557;BME280;52200;53.490;14.376;2023-01-29T00:05:55;102405.50;;;0.20;80.22
65557;BME280;52200;53.490;14.376;2023-01-29T00:08:20;102403.81;;;0.19;80.56
65557;BME280;52200;53.490;14.376;2023-01-29T00:10:45;102407.00;;;-0.04;81.41
65557;BME280;52200;53.490;14.376;2023-01-29T00:13:12;102412.00;;;0.16;81.14
65557;BME280;52200;53.490;14.376;2023-01-29T00:15:37;102404.91;;;0.25;80.04
65557;BME280;52200;53.490;14.376;2023-01-29T00:18:02;102406.88;;;0.52;79.66
65557;BME280;52200;53.490;14.376;2023-01-29T00:20:28;102411.09;;;0.34;80.13
65557;BME280;52200;53.490;14.376;2023-01-29T00:22:53;102404.03;;;0.44;79.90
65557;BME280;52200;53.490;14.376;2023-01-29T00:25:18;102401.75;;;0.49;80.24
65557;BME280;52200;53.490;14.376;2023-01-29T00:27:44;102406.88;;;0.52;79.33
65557;BME280;52200;53.490;14.376;2023-01-29T00:30:10;102402.28;;;0.42;79.74
65557;BME280;52200;53.490;14.376;2023-01-29T00:32:39;102411.88;;;0.52;80.30
65557;BME280;52200;53.490;14.376;2023-01-29T00:35:05;102423.06;;;0.60;79.87
65557;BME280;52200;53.490;14.376;2023-01-29T00:37:31;102418.06;;;0.21;80.38
65557;BME280;52200;53.490;14.376;2023-01-29T00:39:56;102412.41;;;0.45;80.63
65557;BME280;52200;53.490;14.376;2023-01-29T00:42:22;102404.91;;;0.45;81.41
65557;BME280;52200;53.490;14.376;2023-01-29T00:45:06;102408.78;;;0.38;81.16
65557;BME280;52200;53.490;14.376;2023-01-29T00:47:32;102404.66;;;0.39;82.01
65557;BME280;52200;53.490;14.376;2023-01-29T00:49:59;102399.41;;;0.32;82.91
65557;BME280;52200;53.490;14.376;2023-01-29T00:52:25;102402.47;;;0.27;83.12
65557;BME280;52200;53.490;14.376;2023-01-29T00:54:51;102399.44;;;0.34;82.74
65557;BME280;52200;53.490;14.376;2023-01-29T00:57:17;102400.13;;;0.50;82.83
65557;BME280;52200;53.490;14.376;2023-01-29T00:59:43;102392.69;;;0.31;83.39
65557;BME280;52200;53.490;14.376;2023-01-29T01:02:08;102392.72;;;0.33;83.33
65557;BME280;52200;53.490;14.376;2023-01-29T01:04:52;102391.63;;;0.26;83.90
65557;BME280;52200;53.490;14.376;2023-01-29T01:07:17;102389.03;;;-0.14;85.89
65557;BME280;52200;53.490;14.376;2023-01-29T01:09:43;102379.66;;;0.19;85.86
65557;BME280;52200;53.490;14.376;2023-01-29T01:12:27;102389.50;;;0.36;86.46
65557;BME280;52200;53.490;14.376;2023-01-29T01:14:53;102380.06;;;0.09;85.91
65557;BME280;52200;53.490;14.376;2023-01-29T01:17:18;102370.44;;;0.18;86.34
65557;BME280;52200;53.490;14.376;2023-01-29T01:19:43;102368.00;;;0.39;86.09
65557;BME280;52200;53.490;14.376;2023-01-29T01:22:09;102374.13;;;0.46;85.41
65557;BME280;52200;53.490;14.376;2023-01-29T01:24:35;102368.53;;;0.32;85.76
65557;BME280;52200;53.490;14.376;2023-01-29T01:27:00;102361.22;;;0.17;86.58
65557;BME280;52200;53.490;14.376;2023-01-29T01:29:25;102365.56;;;0.41;87.26
65557;BME280;52200;53.490;14.376;2023-01-29T01:31:52;102356.91;;;0.32;86.23
65557;BME280;52200;53.490;14.376;2023-01-29T01:34:17;102345.13;;;0.50;86.41
65557;BME280;52200;53.490;14.376;2023-01-29T01:36:43;102343.16;;;0.42;86.67
65557;BME280;52200;53.490;14.376;2023-01-29T01:39:09;102344.38;;;0.52;86.08
65557;BME280;52200;53.490;14.376;2023-01-29T01:41:34;102335.13;;;0.30;86.38
65557;BME280;52200;53.490;14.376;2023-01-29T01:44:01;102334.72;;;0.21;87.31
65557;BME280;52200;53.490;14.376;2023-01-29T01:46:29;102337.41;;;0.45;86.17
65557;BME280;52200;53.490;14.376;2023-01-29T01:49:10;102343.41;;;0.48;86.73
65557;BME280;52200;53.490;14.376;2023-01-29T01:51:39;102344.44;;;0.75;85.44
65557;BME280;52200;53.490;14.376;2023-01-29T01:54:26;102346.78;;;0.51;85.47
65557;BME280;52200;53.490;14.376;2023-01-29T01:57:02;102343.78;;;0.38;86.23
65557;BME280;52200;53.490;14.376;2023-01-29T01:59:42;102338.97;;;0.43;86.38
65557;BME280;52200;53.490;14.376;2023-01-29T02:02:10;102337.47;;;0.68;85.29
65557;BME280;52200;53.490;14.376;2023-01-29T02:04:54;102338.56;;;0.53;85.86
65557;BME280;52200;53.490;14.376;2023-01-29T02:07:46;102337.47;;;0.46;86.69
65557;BME280;52200;53.490;14.376;2023-01-29T02:10:37;102334.25;;;0.29;87.85
65557;BME280;52200;53.490;14.376;2023-01-29T02:13:05;102324.63;;;0.58;87.86
65557;BME280;52200;53.490;14.376;2023-01-29T02:15:31;102324.44;;;0.75;86.90
65557;BME280;52200;53.490;14.376;2023-01-29T02:17:57;102315.41;;;0.57;87.06
65557;BME280;52200;53.490;14.376;2023-01-29T02:20:26;102316.94;;;0.75;86.70
65557;BME280;52200;53.490;14.376;2023-01-29T02:26:19;102324.72;;;0.61;87.58
65557;BME280;52200;53.490;14.376;2023-01-29T02:29:44;102317.97;;;0.59;88.63
65557;BME280;52200;53.490;14.376;2023-01-29T02:37:24;102314.13;;;0.67;88.66
65557;BME280;52200;53.490;14.376;2023-01-29T02:40:04;102307.28;;;0.42;90.20
65557;BME280;52200;53.490;14.376;2023-01-29T02:42:40;102309.59;;;0.37;90.67
65557;BME280;52200;53.490;14.376;2023-01-29T02:45:14;102303.56;;;0.53;91.32
65557;BME280;52200;53.490;14.376;2023-01-29T02:47:47;102306.94;;;0.54;90.75
65557;BME280;52200;53.490;14.376;2023-01-29T02:50:59;102299.53;;;0.57;91.11
65557;BME280;52200;53.490;14.376;2023-01-29T02:53:05;102298.63;;;0.76;91.15
65557;BME280;52200;53.490;14.376;2023-01-29T02:58:09;102291.84;;;0.94;89.60
65557;BME280;52200;53.490;14.376;2023-01-29T03:00:40;102284.97;;;0.68;90.29
65557;BME280;52200;53.490;14.376;2023-01-29T03:03:17;102275.44;;;0.59;90.77
65557;BME280;52200;53.490;14.376;2023-01-29T03:06:06;102266.97;;;0.76;91.12
65557;BME280;52200;53.490;14.376;2023-01-29T03:08:50;102280.69;;;0.86;90.14
65557;BME280;52200;53.490;14.376;2023-01-29T03:11:18;102282.91;;;0.57;91.40
65557;BME280;52200;53.490;14.376;2023-01-29T03:16:19;102273.81;;;0.80;90.44
65557;BME280;52200;53.490;14.376;2023-01-29T03:18:54;102269.47;;;0.55;91.91
65557;BME280;52200;53.490;14.376;2023-01-29T03:21:24;102258.63;;;0.76;91.70
65557;BME280;52200;53.490;14.376;2023-01-29T03:24:12;102253.88;;;0.61;92.21
65557;BME280;52200;53.490;14.376;2023-01-29T03:27:01;102254.84;;;0.64;92.91
65557;BME280;52200;53.490;14.376;2023-01-29T03:29:48;102248.63;;;0.76;92.73
65557;BME280;52200;53.490;14.376;2023-01-29T03:32:34;102260.19;;;0.74;92.10
65557;BME280;52200;53.490;14.376;2023-01-29T03:35:04;102258.94;;;0.85;92.41
65557;BME280;52200;53.490;14.376;2023-01-29T03:37:45;102259.03;;;0.66;92.04
65557;BME280;52200;53.490;14.376;2023-01-29T03:40:12;102259.78;;;0.63;93.30
65557;BME280;52200;53.490;14.376;2023-01-29T03:45:35;102248.22;;;0.88;92.48
65557;BME280;52200;53.490;14.376;2023-01-29T03:48:34;102243.28;;;0.89;92.50
65557;BME280;52200;53.490;14.376;2023-01-29T03:53:47;102250.75;;;1.10;91.11
65557;BME280;52200;53.490;14.376;2023-01-29T03:56:41;102253.00;;;1.27;90.98
65557;BME280;52200;53.490;14.376;2023-01-29T03:59:40;102258.63;;;1.44;90.21
65557;BME280;52200;53.490;14.376;2023-01-29T04:02:23;102266.97;;;1.20;90.51
65557;BME280;52200;53.490;14.376;2023-01-29T04:04:58;102264.78;;;1.07;90.53
65557;BME280;52200;53.490;14.376;2023-01-29T04:07:27;102257.09;;;1.25;90.50
65557;BME280;52200;53.490;14.376;2023-01-29T04:10:02;102261.44;;;1.29;91.35
65557;BME280;52200;53.490;14.376;2023-01-29T04:12:36;102268.06;;;1.51;90.03
65557;BME280;52200;53.490;14.376;2023-01-29T04:15:06;102260.41;;;1.47;90.29
65557;BME280;52200;53.490;14.376;2023-01-29T04:17:39;102256.22;;;1.47;90.71
65557;BME280;52200;53.490;14.376;2023-01-29T04:20:06;102250.38;;;1.47;90.51
65557;BME280;52200;53.490;14.376;2023-01-29T04:22:37;102242.38;;;1.33;90.84
65557;BME280;52200;53.490;14.376;2023-01-29T04:25:15;102242.59;;;1.16;91.48
65557;BME280;52200;53.490;14.376;2023-01-29T04:27:47;102241.25;;;1.02;92.55
65557;BME280;52200;53.490;14.376;2023-01-29T04:33:20;102249.97;;;1.36;92.09
65557;BME280;52200;53.490;14.376;2023-01-29T04:39:21;102257.66;;;1.40;92.33
65557;BME280;52200;53.490;14.376;2023-01-29T04:41:53;102254.72;;;1.28;93.34
65557;BME280;52200;53.490;14.376;2023-01-29T04:44:34;102247.50;;;1.13;93.53
65557;BME280;52200;53.490;14.376;2023-01-29T04:47:20;102252.00;;;0.99;95.22
65557;BME280;52200;53.490;14.376;2023-01-29T04:49:58;102262.47;;;1.11;95.09
65557;BME280;52200;53.490;14.376;2023-01-29T04:52:43;102257.72;;;1.42;93.77
65557;BME280;52200;53.490;14.376;2023-01-29T04:55:24;102259.56;;;1.46;93.98
65557;BME280;52200;53.490;14.376;2023-01-29T05:00:47;102256.34;;;1.50;93.81
65557;BME280;52200;53.490;14.376;2023-01-29T05:03:15;102261.00;;;1.64;93.03
65557;BME280;52200;53.490;14.376;2023-01-29T05:05:43;102259.50;;;1.69;92.49
65557;BME280;52200;53.490;14.376;2023-01-29T05:08:11;102260.78;;;1.35;93.34
65557;BME280;52200;53.490;14.376;2023-01-29T05:10:38;102267.22;;;1.51;93.99
65557;BME280;52200;53.490;14.376;2023-01-29T05:13:07;102267.94;;;1.24;95.04
65557;BME280;52200;53.490;14.376;2023-01-29T05:15:39;102261.34;;;1.27;94.93
65557;BME280;52200;53.490;14.376;2023-01-29T05:18:07;102260.69;;;1.09;94.75
65557;BME280;52200;53.490;14.376;2023-01-29T05:20:36;102244.19;;;1.37;95.36
65557;BME280;52200;53.490;14.376;2023-01-29T05:23:03;102239.81;;;1.55;94.41
65557;BME280;52200;53.490;14.376;2023-01-29T05:25:31;102231.78;;;1.64;93.53
65557;BME280;52200;53.490;14.376;2023-01-29T05:27:56;102231.94;;;1.69;94.07
65557;BME280;52200;53.490;14.376;2023-01-29T05:30:42;102230.66;;;1.56;93.55
65557;BME280;52200;53.490;14.376;2023-01-29T05:33:14;102238.53;;;1.67;93.53
65557;BME280;52200;53.490;14.376;2023-01-29T05:35:40;102235.25;;;1.68;92.78
65557;BME280;52200;53.490;14.376;2023-01-29T05:38:05;102241.09;;;1.44;94.48
65557;BME280;52200;53.490;14.376;2023-01-29T05:40:30;102241.53;;;1.56;94.52
65557;BME280;52200;53.490;14.376;2023-01-29T05:42:56;102237.06;;;1.25;95.57
65557;BME280;52200;53.490;14.376;2023-01-29T05:45:21;102225.53;;;1.28;95.37
65557;BME280;52200;53.490;14.376;2023-01-29T05:47:47;102235.25;;;1.21;97.16
65557;BME280;52200;53.490;14.376;2023-01-29T05:50:13;102216.84;;;1.43;96.41
65557;BME280;52200;53.490;14.376;2023-01-29T05:52:39;102216.81;;;1.41;95.88
65557;BME280;52200;53.490;14.376;2023-01-29T05:55:06;102209.47;;;1.46;96.25
65557;BME280;52200;53.490;14.376;2023-01-29T05:57:31;102216.63;;;1.37;95.71
65557;BME280;52200;53.490;14.376;2023-01-29T05:59:56;102221.81;;;1.41;96.35
65557;BME280;52200;53.490;14.376;2023-01-29T06:02:22;102211.28;;;1.50;95.89
65557;BME280;52200;53.490;14.376;2023-01-29T06:04:50;102209.25;;;1.40;96.54
65557;BME280;52200;53.490;14.376;2023-01-29T06:07:16;102201.75;;;1.40;96.25
65557;BME280;52200;53.490;14.376;2023-01-29T06:09:41;102187.16;;;1.29;96.53
65557;BME280;52200;53.490;14.376;2023-01-29T06:12:06;102192.56;;;1.40;97.03
65557;BME280;52200;53.490;14.376;2023-01-29T06:14:32;102200.03;;;1.39;97.14
65557;BME280;52200;53.490;14.376;2023-01-29T06:16:57;102199.06;;;1.59;96.72
65557;BME280;52200;53.490;14.376;2023-01-29T06:19:23;102193.75;;;1.50;96.17
65557;BME280;52200;53.490;14.376;2023-01-29T06:21:48;102196.88;;;1.44;96.56
65557;BME280;52200;53.490;14.376;2023-01-29T06:24:14;102187.50;;;1.39;96.50
65557;BME280;52200;53.490;14.376;2023-01-29T06:26:39;102195.91;;;1.17;97.42
65557;BME280;52200;53.490;14.376;2023-01-29T06:29:04;102195.78;;;1.13;99.24
65557;BME280;52200;53.490;14.376;2023-01-29T06:31:30;102193.53;;;1.21;99.50
65557;BME280;52200;53.490;14.376;2023-01-29T06:33:56;102190.34;;;1.01;99.38
65557;BME280;52200;53.490;14.376;2023-01-29T06:36:21;102187.16;;;1.29;99.52
65557;BME280;52200;53.490;14.376;2023-01-29T06:38:46;102187.72;;;1.45;99.17
65557;BME280;52200;53.490;14.376;2023-01-29T06:41:15;102197.41;;;1.36;98.80
65557;BME280;52200;53.490;14.376;2023-01-29T06:43:45;102174.88;;;1.36;98.90
65557;BME280;52200;53.490;14.376;2023-01-29T06:46:12;102184.88;;;1.36;99.48
65557;BME280;52200;53.490;14.376;2023-01-29T06:48:37;102187.91;;;1.27;99.73
65557;BME280;52200;53.490;14.376;2023-01-29T06:51:07;102186.72;;;1.17;100.00
65557;BME280;52200;53.490;14.376;2023-01-29T06:53:34;102191.03;;;1.44;99.68
65557;BME280;52200;53.490;14.376;2023-01-29T06:55:59;102195.66;;;1.57;99.34
65557;BME280;52200;53.490;14.376;2023-01-29T06:58:25;102187.28;;;1.33;99.76
65557;BME280;52200;53.490;14.376;2023-01-29T07:00:51;102183.88;;;1.31;99.41
65557;BME280;52200;53.490;14.376;2023-01-29T07:03:16;102177.88;;;1.03;100.00
65557;BME280;52200;53.490;14.376;2023-01-29T07:05:41;102187.81;;;1.24;100.00
65557;BME280;52200;53.490;14.376;2023-01-29T07:08:07;102189.91;;;1.36;99.96
65557;BME280;52200;53.490;14.376;2023-01-29T07:10:34;102189.41;;;1.22;100.00
65557;BME280;52200;53.490;14.376;2023-01-29T07:12:59;102185.81;;;1.38;99.86
65557;BME280;52200;53.490;14.376;2023-01-29T07:15:25;102170.00;;;1.16;100.00
65557;BME280;52200;53.490;14.376;2023-01-29T07:18:01;102169.66;;;1.29;100.00
65557;BME280;52200;53.490;14.376;2023-01-29T07:20:28;102167.56;;;1.42;100.00
65557;BME280;52200;53.490;14.376;2023-01-29T07:22:56;102165.50;;;1.54;100.00
65557;BME280;52200;53.490;14.376;2023-01-29T07:25:22;102175.47;;;1.53;100.00
65557;BME280;52200;53.490;14.376;2023-01-29T07:27:47;102175.25;;;1.71;99.09
65557;BME280;52200;53.490;14.376;2023-01-29T07:30:14;102184.31;;;1.67;98.46
65557;BME280;52200;53.490;14.376;2023-01-29T07:32:40;102186.34;;;1.79;98.85
65557;BME280;52200;53.490;14.376;2023-01-29T07:35:06;102186.47;;;1.58;98.56
65557;BME280;52200;53.490;14.376;2023-01-29T07:37:31;102183.44;;;1.67;99.30
65557;BME280;52200;53.490;14.376;2023-01-29T07:39:57;102182.44;;;1.61;98.77
65557;BME280;52200;53.490;14.376;2023-01-29T07:42:22;102186.19;;;1.74;98.05
65557;BME280;52200;53.490;14.376;2023-01-29T07:44:48;102178.44;;;1.67;98.36
65557;BME280;52200;53.490;14.376;2023-01-29T07:47:13;102179.84;;;1.58;99.07
65557;BME280;52200;53.490;14.376;2023-01-29T07:49:38;102174.84;;;1.58;99.06
65557;BME280;52200;53.490;14.376;2023-01-29T07:52:04;102185.34;;;1.50;99.92
65557;BME280;52200;53.490;14.376;2023-01-29T07:54:29;102198.03;;;1.54;99.78
65557;BME280;52200;53.490;14.376;2023-01-29T07:56:55;102186.19;;;1.49;99.71
65557;BME280;52200;53.490;14.376;2023-01-29T07:59:20;102174.50;;;1.73;100.00
65557;BME280;52200;53.490;14.376;2023-01-29T08:01:45;102172.66;;;1.69;99.38
65557;BME280;52200;53.490;14.376;2023-01-29T08:04:11;102156.09;;;1.73;99.51
65557;BME280;52200;53.490;14.376;2023-01-29T08:06:36;102150.47;;;1.54;98.92
65557;BME280;52200;53.490;14.376;2023-01-29T08:09:02;102150.84;;;1.41;100.00
65557;BME280;52200;53.490;14.376;2023-01-29T08:11:27;102144.44;;;1.49;99.65
65557;BME280;52200;53.490;14.376;2023-01-29T08:13:53;102150.13;;;1.69;99.53
65557;BME280;52200;53.490;14.376;2023-01-29T08:16:19;102150.88;;;1.67;99.73
65557;BME280;52200;53.490;14.376;2023-01-29T08:18:44;102152.88;;;1.51;99.59
65557;BME280;52200;53.490;14.376;2023-01-29T08:21:12;102146.31;;;1.31;99.83
65557;BME280;52200;53.490;14.376;2023-01-29T08:23:37;102138.84;;;1.32;100.00
65557;BME280;52200;53.490;14.376;2023-01-29T08:26:02;102145.16;;;1.45;100.00
65557;BME280;52200;53.490;14.376;2023-01-29T08:28:28;102141.31;;;1.55;100.00
65557;BME280;52200;53.490;14.376;2023-01-29T08:30:53;102133.13;;;1.60;99.25
65557;BME280;52200;53.490;14.376;2023-01-29T08:33:19;102131.44;;;1.34;99.75
65557;BME280;52200;53.490;14.376;2023-01-29T08:35:51;102123.81;;;1.56;100.00
65557;BME280;52200;53.490;14.376;2023-01-29T08:38:16;102127.59;;;1.97;98.45
65557;BME280;52200;53.490;14.376;2023-01-29T08:40:42;102137.91;;;1.79;97.51
65557;BME280;52200;53.490;14.376;2023-01-29T08:43:10;102143.41;;;1.68;98.42
65557;BME280;52200;53.490;14.376;2023-01-29T08:45:38;102147.81;;;1.75;98.77
65557;BME280;52200;53.490;14.376;2023-01-29T08:48:04;102152.38;;;1.87;98.68
65557;BME280;52200;53.490;14.376;2023-01-29T08:50:30;102143.59;;;1.74;97.95
65557;BME280;52200;53.490;14.376;2023-01-29T08:52:57;102144.44;;;1.49;99.26
65557;BME280;52200;53.490;14.376;2023-01-29T08:55:23;102156.06;;;1.47;100.00
65557;BME280;52200;53.490;14.376;2023-01-29T08:57:49;102152.97;;;1.54;100.00
65557;BME280;52200;53.490;14.376;2023-01-29T09:00:14;102145.38;;;1.51;100.00
65557;BME280;52200;53.490;14.376;2023-01-29T09:02:40;102140.16;;;1.45;100.00
65557;BME280;52200;53.490;14.376;2023-01-29T09:05:06;102139.84;;;1.61;100.00
65557;BME280;52200;53.490;14.376;2023-01-29T09:07:31;102143.56;;;1.73;100.00
65557;BME280;52200;53.490;14.376;2023-01-29T09:09:57;102155.06;;;1.92;99.38
65557;BME280;52200;53.490;14.376;2023-01-29T09:12:22;102156.28;;;2.05;97.79
65557;BME280;52200;53.490;14.376;2023-01-29T09:14:48;102147.19;;;1.81;98.77
65557;BME280;52200;53.490;14.376;2023-01-29T09:17:13;102143.34;;;1.67;99.05
65557;BME280;52200;53.490;14.376;2023-01-29T09:19:38;102142.47;;;1.65;98.89
65557;BME280;52200;53.490;14.376;2023-01-29T09:22:03;102140.63;;;1.85;100.00
65557;BME280;52200;53.490;14.376;2023-01-29T09:24:29;102140.91;;;1.94;99.27
65557;BME280;52200;53.490;14.376;2023-01-29T09:26:54;102126.22;;;2.05;99.20
65557;BME280;52200;53.490;14.376;2023-01-29T09:29:19;102131.94;;;2.01;99.54
65557;BME280;52200;53.490;14.376;2023-01-29T09:31:45;102121.13;;;2.02;99.63
65557;BME280;52200;53.490;14.376;2023-01-29T09:34:10;102134.28;;;2.23;98.65
65557;BME280;52200;53.490;14.376;2023-01-29T09:36:35;102138.00;;;2.36;97.99
65557;BME280;52200;53.490;14.376;2023-01-29T09:39:03;102141.03;;;2.53;96.17
65557;BME280;52200;53.490;14.376;2023-01-29T09:45:24;102152.22;;;2.94;95.90
65557;BME280;52200;53.490;14.376;2023-01-29T09:47:42;102163.84;;;2.90;94.63
65557;BME280;52200;53.490;14.376;2023-01-29T09:50:16;102172.81;;;2.53;94.78
65557;BME280;52200;53.490;14.376;2023-01-29T09:52:52;102159.06;;;2.69;94.73
65557;BME280;52200;53.490;14.376;2023-01-29T09:57:49;102131.69;;;3.07;94.08
65557;BME280;52200;53.490;14.376;2023-01-29T10:00:23;102125.34;;;3.21;93.78
65557;BME280;52200;53.490;14.376;2023-01-29T10:03:12;102123.47;;;3.46;92.96
65557;BME280;52200;53.490;14.376;2023-01-29T10:24:58;102083.81;;;3.01;94.17
65557;BME280;52200;53.490;14.376;2023-01-29T10:27:31;102073.13;;;3.08;94.36
65557;BME280;52200;53.490;14.376;2023-01-29T10:29:57;102068.75;;;3.01;94.18
65557;BME280;52200;53.490;14.376;2023-01-29T10:32:24;102067.91;;;3.34;93.94
65557;BME280;52200;53.490;14.376;2023-01-29T10:35:23;102056.44;;;3.10;94.02
65557;BME280;52200;53.490;14.376;2023-01-29T10:37:52;102063.31;;;3.17;93.96
65557;BME280;52200;53.490;14.376;2023-01-29T10:43:14;102050.16;;;3.61;92.68
65557;BME280;52200;53.490;14.376;2023-01-29T10:48:39;102038.22;;;3.52;92.05
65557;BME280;52200;53.490;14.376;2023-01-29T10:51:14;102030.81;;;3.59;91.63
65557;BME280;52200;53.490;14.376;2023-01-29T10:54:06;102032.13;;;3.79;91.96
65557;BME280;52200;53.490;14.376;2023-01-29T11:01:47;102023.44;;;3.65;90.83
65557;BME280;52200;53.490;14.376;2023-01-29T11:04:13;102025.28;;;3.72;91.59
65557;BME280;52200;53.490;14.376;2023-01-29T11:06:38;102017.91;;;3.80;91.24
65557;BME280;52200;53.490;14.376;2023-01-29T11:09:15;102018.00;;;3.84;90.50
65557;BME280;52200;53.490;14.376;2023-01-29T11:11:47;102024.06;;;3.93;90.96
65557;BME280;52200;53.490;14.376;2023-01-29T11:14:23;102008.97;;;3.93;91.07
65557;BME280;52200;53.490;14.376;2023-01-29T11:16:51;102014.41;;;4.11;90.15
65557;BME280;52200;53.490;14.376;2023-01-29T11:19:17;102016.09;;;4.12;89.99
65557;BME280;52200;53.490;14.376;2023-01-29T11:21:51;102021.78;;;4.03;89.97
65557;BME280;52200;53.490;14.376;2023-01-29T11:24:19;102011.53;;;3.94;89.75
65557;BME280;52200;53.490;14.376;2023-01-29T11:26:47;102007.81;;;3.78;90.17
65557;BME280;52200;53.490;14.376;2023-01-29T11:29:46;102006.31;;;3.85;90.98
65557;BME280;52200;53.490;14.376;2023-01-29T11:37:34;101993.59;;;4.18;90.20
65557;BME280;52200;53.490;14.376;2023-01-29T11:39:59;101972.34;;;4.04;89.50
65557;BME280;52200;53.490;14.376;2023-01-29T11:42:30;101968.47;;;3.79;90.58
65557;BME280;52200;53.490;14.376;2023-01-29T11:44:55;101965.84;;;3.74;90.83
65557;BME280;52200;53.490;14.376;2023-01-29T11:47:25;101963.63;;;3.50;91.64
65557;BME280;52200;53.490;14.376;2023-01-29T11:49:54;101961.50;;;3.67;91.09
65557;BME280;52200;53.490;14.376;2023-01-29T11:52:23;101957.53;;;3.78;91.43
65557;BME280;52200;53.490;14.376;2023-01-29T11:57:35;101960.69;;;3.68;90.71
65557;BME280;52200;53.490;14.376;2023-01-29T12:02:49;101933.19;;;3.36;92.74
65557;BME280;52200;53.490;14.376;2023-01-29T12:05:20;101942.28;;;3.69;92.82
65557;BME280;52200;53.490;14.376;2023-01-29T12:07:49;101932.13;;;3.64;92.17
65557;BME280;52200;53.490;14.376;2023-01-29T12:15:37;101922.84;;;3.60;91.95
65557;BME280;52200;53.490;14.376;2023-01-29T12:20:45;101918.22;;;3.80;91.37
65557;BME280;52200;53.490;14.376;2023-01-29T12:23:40;101918.41;;;3.90;91.10
65557;BME280;52200;53.490;14.376;2023-01-29T12:26:12;101919.66;;;4.10;90.24
65557;BME280;52200;53.490;14.376;2023-01-29T12:36:42;101904.72;;;3.75;91.85
65557;BME280;52200;53.490;14.376;2023-01-29T12:39:17;101899.50;;;3.66;91.36
65557;BME280;52200;53.490;14.376;2023-01-29T12:41:51;101903.97;;;3.79;91.42
65557;BME280;52200;53.490;14.376;2023-01-29T12:44:20;101904.72;;;3.75;90.46
65557;BME280;52200;53.490;14.376;2023-01-29T12:46:57;101894.75;;;3.80;90.78
65557;BME280;52200;53.490;14.376;2023-01-29T12:49:27;101894.91;;;3.87;92.21
65557;BME280;52200;53.490;14.376;2023-01-29T12:52:11;101887.41;;;3.91;91.09
65557;BME280;52200;53.490;14.376;2023-01-29T12:54:48;101877.75;;;3.68;92.28
65557;BME280;52200;53.490;14.376;2023-01-29T12:57:28;101882.41;;;3.49;92.35
65557;BME280;52200;53.490;14.376;2023-01-29T13:00:02;101873.97;;;3.88;92.18
65557;BME280;52200;53.490;14.376;2023-01-29T13:02:38;101876.09;;;4.11;91.24
65557;BME280;52200;53.490;14.376;2023-01-29T13:07:45;101869.94;;;3.97;91.35
65557;BME280;52200;53.490;14.376;2023-01-29T13:10:17;101873.25;;;3.94;91.97
65557;BME280;52200;53.490;14.376;2023-01-29T13:12:58;101870.06;;;4.04;91.25
65557;BME280;52200;53.490;14.376;2023-01-29T13:15:37;101865.41;;;3.79;92.79
65557;BME280;52200;53.490;14.376;2023-01-29T13:18:22;101848.75;;;3.84;92.95
65557;BME280;52200;53.490;14.376;2023-01-29T13:20:55;101859.31;;;4.10;92.19
65557;BME280;52200;53.490;14.376;2023-01-29T13:23:35;101862.59;;;4.06;91.99
65557;BME280;52200;53.490;14.376;2023-01-29T13:26:02;101858.97;;;3.93;91.87
65557;BME280;52200;53.490;14.376;2023-01-29T13:28:28;101857.44;;;4.00;91.91
65557;BME280;52200;53.490;14.376;2023-01-29T13:31:12;101850.72;;;3.99;91.61
65557;BME280;52200;53.490;14.376;2023-01-29T13:33:41;101847.22;;;3.92;91.25
65557;BME280;52200;53.490;14.376;2023-01-29T13:36:14;101853.47;;;4.11;91.34
65557;BME280;52200;53.490;14.376;2023-01-29T13:38:42;101843.88;;;3.92;91.28
65557;BME280;52200;53.490;14.376;2023-01-29T13:41:09;101845.56;;;3.51;91.78
65557;BME280;52200;53.490;14.376;2023-01-29T13:43:37;101844.19;;;3.64;92.62
65557;BME280;52200;53.490;14.376;2023-01-29T13:46:11;101837.34;;;4.00;91.10
65557;BME280;52200;53.490;14.376;2023-01-29T13:48:47;101834.19;;;4.12;90.26
65557;BME280;52200;53.490;14.376;2023-01-29T13:51:18;101837.50;;;4.11;90.53
65557;BME280;52200;53.490;14.376;2023-01-29T13:54:00;101827.94;;;4.37;88.95
65557;BME280;52200;53.490;14.376;2023-01-29T13:59:03;101814.38;;;3.81;90.70
65557;BME280;52200;53.490;14.376;2023-01-29T14:10:18;101813.16;;;3.64;90.09
65557;BME280;52200;53.490;14.376;2023-01-29T14:12:45;101814.53;;;3.92;89.94
65557;BME280;52200;53.490;14.376;2023-01-29T14:15:22;101801.81;;;3.83;90.60
65557;BME280;52200;53.490;14.376;2023-01-29T14:18:13;101799.75;;;3.62;90.20
65557;BME280;52200;53.490;14.376;2023-01-29T14:20:48;101794.34;;;3.43;90.88
65557;BME280;52200;53.490;14.376;2023-01-29T14:23:34;101787.72;;;3.47;91.45
65557;BME280;52200;53.490;14.376;2023-01-29T14:26:02;101785.03;;;3.39;90.78
65557;BME280;52200;53.490;14.376;2023-01-29T14:28:30;101780.38;;;3.15;91.37
65557;BME280;52200;53.490;14.376;2023-01-29T14:30:56;101775.47;;;3.21;91.87
65557;BME280;52200;53.490;14.376;2023-01-29T14:33:39;101778.81;;;3.20;91.86
65557;BME280;52200;53.490;14.376;2023-01-29T14:36:12;101768.06;;;3.26;91.25
65557;BME280;52200;53.490;14.376;2023-01-29T14:38:45;101764.25;;;3.03;91.44
65557;BME280;52200;53.490;14.376;2023-01-29T14:41:25;101760.97;;;3.08;92.16
65557;BME280;52200;53.490;14.376;2023-01-29T14:46:56;101757.81;;;3.16;90.89
65557;BME280;52200;53.490;14.376;2023-01-29T14:49:59;101752.94;;;3.24;91.12
65557;BME280;52200;53.490;14.376;2023-01-29T14:52:31;101755.84;;;3.03;91.88
65557;BME280;52200;53.490;14.376;2023-01-29T14:55:03;101759.16;;;3.02;91.73
65557;BME280;52200;53.490;14.376;2023-01-29T14:57:30;101754.16;;;3.02;93.22